createdAt,value
2022-08-28T00:00:30.431Z,20.10
2022-08-28T00:01:30.423Z,20.09
2022-08-28T00:02:30.457Z,20.09
2022-08-28T00:03:30.499Z,20.09
2022-08-28T00:04:30.381Z,20.08
2022-08-28T00:05:30.385Z,20.10
2022-08-28T00:06:30.349Z,20.09
2022-08-28T00:07:30.337Z,20.09
2022-08-28T00:08:30.323Z,20.08
2022-08-28T00:09:36.320Z,20.09
2022-08-28T00:10:30.289Z,20.09
2022-08-28T00:11:30.288Z,20.09
2022-08-28T00:12:30.276Z,20.08
2022-08-28T00:13:30.257Z,20.08
2022-08-28T00:14:30.251Z,20.08
2022-08-28T00:15:30.236Z,20.08
2022-08-28T00:16:30.252Z,20.06
2022-08-28T00:17:30.208Z,20.06
2022-08-28T00:18:30.182Z,20.06
2022-08-28T00:19:30.182Z,20.06
2022-08-28T00:20:30.169Z,20.06
2022-08-28T00:21:30.149Z,20.06
2022-08-28T00:22:30.140Z,20.08
2022-08-28T00:23:30.405Z,20.06
2022-08-28T00:24:31.150Z,20.08
2022-08-28T00:25:30.095Z,20.05
2022-08-28T00:26:30.083Z,20.06
2022-08-28T00:27:30.068Z,20.05
2022-08-28T00:28:30.068Z,20.05
2022-08-28T00:29:30.035Z,20.06
2022-08-28T00:30:30.022Z,20.05
2022-08-28T00:31:30.096Z,20.03
2022-08-28T00:32:30.003Z,20.05
2022-08-28T00:33:29.981Z,20.05
2022-08-28T00:34:33.265Z,20.05
2022-08-28T00:35:29.968Z,20.05
2022-08-28T00:36:29.949Z,20.05
2022-08-28T00:37:29.942Z,20.03
2022-08-28T00:38:35.926Z,20.03
2022-08-28T00:39:29.915Z,20.03
2022-08-28T00:40:35.947Z,20.03
2022-08-28T00:41:36.481Z,20.03
2022-08-28T00:42:29.863Z,20.03
2022-08-28T00:43:29.848Z,20.05
2022-08-28T00:44:29.869Z,20.03
2022-08-28T00:45:29.856Z,20.03
2022-08-28T00:46:29.852Z,20.03
2022-08-28T00:47:29.795Z,20.03
2022-08-28T00:48:29.783Z,20.02
2022-08-28T00:49:29.782Z,20.00
2022-08-28T00:50:29.768Z,20.02
2022-08-28T00:51:29.752Z,20.00
2022-08-28T00:52:29.741Z,20.00
2022-08-28T00:53:31.646Z,20.00
2022-08-28T00:54:35.717Z,20.03
2022-08-28T00:55:29.713Z,20.02
2022-08-28T00:56:29.677Z,20.00
2022-08-28T00:57:29.669Z,20.00
2022-08-28T00:58:29.651Z,20.00
2022-08-28T00:59:29.651Z,20.00
2022-08-28T01:00:29.630Z,20.00
2022-08-28T01:01:29.665Z,20.00
2022-08-28T01:02:29.718Z,20.02
2022-08-28T01:03:29.599Z,20.02
2022-08-28T01:04:29.583Z,20.00
2022-08-28T01:05:29.560Z,20.00
2022-08-28T01:06:35.560Z,19.98
2022-08-28T01:07:29.544Z,20.00
2022-08-28T01:08:30.386Z,19.98
2022-08-28T01:09:29.516Z,19.98
2022-08-28T01:10:29.496Z,20.00
2022-08-28T01:11:29.491Z,20.00
2022-08-28T01:12:29.478Z,20.00
2022-08-28T01:13:29.470Z,20.00
2022-08-28T01:14:29.451Z,19.98
2022-08-28T01:15:29.519Z,19.98
2022-08-28T01:16:33.005Z,19.98
2022-08-28T01:17:29.401Z,19.97
2022-08-28T01:18:29.392Z,19.98
2022-08-28T01:19:29.384Z,19.98
2022-08-28T01:20:29.366Z,19.98
2022-08-28T01:21:29.352Z,19.97
2022-08-28T01:22:29.338Z,19.98
2022-08-28T01:23:29.323Z,19.97
2022-08-28T01:24:29.309Z,19.97
2022-08-28T01:25:29.294Z,19.98
2022-08-28T01:26:29.287Z,19.98
2022-08-28T01:27:29.279Z,19.98
2022-08-28T01:28:29.259Z,19.97
2022-08-28T01:29:29.241Z,19.98
2022-08-28T01:30:29.238Z,19.98
2022-08-28T01:31:29.274Z,19.98
2022-08-28T01:32:29.213Z,19.97
2022-08-28T01:33:29.200Z,19.97
2022-08-28T01:34:29.184Z,19.95
2022-08-28T01:35:29.165Z,19.98
2022-08-28T01:36:29.156Z,19.97
2022-08-28T01:37:29.145Z,19.97
2022-08-28T01:38:29.126Z,19.95
2022-08-28T01:39:29.109Z,19.97
2022-08-28T01:40:29.187Z,19.97
2022-08-28T01:41:29.082Z,19.97
2022-08-28T01:42:29.078Z,19.95
2022-08-28T01:43:29.069Z,19.97
2022-08-28T01:44:29.046Z,19.97
2022-08-28T01:45:29.032Z,19.95
2022-08-28T01:46:29.063Z,19.97
2022-08-28T01:47:29.006Z,19.95
2022-08-28T01:48:28.994Z,19.95
2022-08-28T01:49:28.979Z,19.95
2022-08-28T01:50:28.970Z,19.97
2022-08-28T01:51:28.950Z,19.95
2022-08-28T01:52:29.971Z,19.97
2022-08-28T01:53:33.063Z,19.95
2022-08-28T01:54:28.916Z,19.95
2022-08-28T01:55:28.895Z,19.95
2022-08-28T01:56:28.890Z,19.95
2022-08-28T01:57:28.879Z,19.95
2022-08-28T01:58:28.864Z,19.95
2022-08-28T01:59:28.851Z,19.95
2022-08-28T02:00:28.835Z,19.95
2022-08-28T02:01:28.896Z,19.94
2022-08-28T02:02:28.816Z,19.95
2022-08-28T02:03:28.793Z,19.94
2022-08-28T02:04:32.111Z,19.95
2022-08-28T02:05:28.765Z,19.94
2022-08-28T02:06:28.751Z,19.95
2022-08-28T02:07:28.735Z,19.95
2022-08-28T02:08:28.723Z,19.95
2022-08-28T02:09:28.718Z,19.95
2022-08-28T02:10:28.698Z,19.95
2022-08-28T02:11:28.691Z,19.94
2022-08-28T02:12:28.674Z,19.94
2022-08-28T02:13:28.656Z,19.95
2022-08-28T02:14:28.641Z,19.94
2022-08-28T02:15:28.678Z,19.94
2022-08-28T02:16:28.614Z,19.94
2022-08-28T02:17:28.612Z,19.94
2022-08-28T02:18:28.596Z,19.94
2022-08-28T02:19:28.574Z,19.94
2022-08-28T02:20:28.564Z,19.93
2022-08-28T02:21:28.558Z,19.94
2022-08-28T02:22:28.542Z,19.93
2022-08-28T02:23:28.530Z,19.94
2022-08-28T02:24:28.516Z,19.93
2022-08-28T02:25:28.491Z,19.93
2022-08-28T02:26:28.490Z,19.94
2022-08-28T02:27:28.476Z,19.93
2022-08-28T02:28:28.465Z,19.91
2022-08-28T02:29:28.442Z,19.94
2022-08-28T02:30:28.452Z,19.94
2022-08-28T02:31:28.506Z,19.93
2022-08-28T02:32:28.403Z,19.94
2022-08-28T02:33:28.397Z,19.93
2022-08-28T02:34:28.377Z,19.93
2022-08-28T02:35:28.361Z,19.93
2022-08-28T02:36:28.346Z,19.93
2022-08-28T02:37:28.337Z,19.93
2022-08-28T02:38:28.320Z,19.93
2022-08-28T02:39:28.315Z,19.93
2022-08-28T02:40:28.350Z,19.91
2022-08-28T02:41:28.282Z,19.93
2022-08-28T02:42:28.266Z,19.93
2022-08-28T02:43:28.262Z,19.93
2022-08-28T02:44:28.239Z,19.91
2022-08-28T02:45:28.229Z,19.91
2022-08-28T02:46:28.296Z,19.93
2022-08-28T02:47:28.202Z,19.90
2022-08-28T02:48:28.185Z,19.90
2022-08-28T02:49:31.340Z,19.90
2022-08-28T02:50:29.201Z,19.88
2022-08-28T02:51:28.142Z,19.88
2022-08-28T02:52:28.139Z,19.90
2022-08-28T02:53:28.117Z,19.88
2022-08-28T02:54:28.113Z,19.90
2022-08-28T02:55:31.351Z,19.90
2022-08-28T02:56:28.086Z,19.88
2022-08-28T02:57:28.079Z,19.88
2022-08-28T02:58:28.060Z,19.88
2022-08-28T02:59:28.035Z,19.88
2022-08-28T03:00:28.027Z,19.90
2022-08-28T03:01:28.065Z,19.90
2022-08-28T03:02:28.099Z,19.87
2022-08-28T03:03:27.991Z,19.87
2022-08-28T03:04:27.972Z,19.88
2022-08-28T03:05:27.959Z,19.90
2022-08-28T03:06:27.947Z,19.90
2022-08-28T03:07:27.940Z,19.88
2022-08-28T03:08:27.917Z,19.88
2022-08-28T03:09:27.903Z,19.87
2022-08-28T03:10:27.894Z,19.90
2022-08-28T03:11:27.875Z,19.88
2022-08-28T03:12:27.867Z,19.88
2022-08-28T03:13:27.850Z,19.87
2022-08-28T03:14:27.837Z,19.88
2022-08-28T03:15:27.828Z,19.87
2022-08-28T03:16:27.902Z,19.87
2022-08-28T03:17:27.808Z,19.88
2022-08-28T03:18:27.787Z,19.87
2022-08-28T03:19:27.782Z,19.87
2022-08-28T03:20:27.764Z,19.87
2022-08-28T03:21:27.750Z,19.86
2022-08-28T03:22:27.740Z,19.87
2022-08-28T03:23:27.730Z,19.87
2022-08-28T03:24:27.711Z,19.86
2022-08-28T03:25:27.703Z,19.87
2022-08-28T03:26:27.689Z,19.87
2022-08-28T03:27:27.665Z,19.86
2022-08-28T03:28:27.660Z,19.87
2022-08-28T03:29:27.641Z,19.86
2022-08-28T03:30:27.668Z,19.86
2022-08-28T03:31:27.615Z,19.87
2022-08-28T03:32:29.316Z,19.87
2022-08-28T03:33:27.599Z,19.86
2022-08-28T03:34:27.582Z,19.87
2022-08-28T03:35:27.566Z,19.86
2022-08-28T03:36:27.558Z,19.86
2022-08-28T03:37:27.536Z,19.86
2022-08-28T03:38:27.531Z,19.87
2022-08-28T03:39:27.519Z,19.87
2022-08-28T03:40:27.591Z,19.84
2022-08-28T03:41:27.483Z,19.86
2022-08-28T03:42:27.470Z,19.84
2022-08-28T03:43:27.461Z,19.86
2022-08-28T03:44:27.444Z,19.86
2022-08-28T03:45:27.429Z,19.84
2022-08-28T03:46:27.476Z,19.86
2022-08-28T03:47:27.407Z,19.84
2022-08-28T03:48:27.395Z,19.84
2022-08-28T03:49:27.380Z,19.83
2022-08-28T03:50:27.364Z,19.86
2022-08-28T03:51:29.312Z,19.84
2022-08-28T03:52:27.343Z,19.83
2022-08-28T03:53:27.326Z,19.83
2022-08-28T03:54:27.316Z,19.83
2022-08-28T03:55:27.301Z,19.84
2022-08-28T03:56:27.292Z,19.83
2022-08-28T03:57:27.269Z,19.84
2022-08-28T03:58:27.261Z,19.83
2022-08-28T03:59:31.643Z,19.84
2022-08-28T04:00:28.276Z,19.84
2022-08-28T04:01:27.284Z,19.86
2022-08-28T04:02:27.207Z,19.84
2022-08-28T04:03:27.223Z,19.83
2022-08-28T04:04:27.188Z,19.83
2022-08-28T04:05:27.165Z,19.83
2022-08-28T04:06:27.157Z,19.84
2022-08-28T04:07:27.138Z,19.83
2022-08-28T04:08:27.130Z,19.80
2022-08-28T04:09:27.107Z,19.80
2022-08-28T04:10:27.102Z,19.83
2022-08-28T04:11:27.094Z,19.83
2022-08-28T04:12:27.078Z,19.80
2022-08-28T04:13:27.054Z,19.80
2022-08-28T04:14:27.042Z,19.83
2022-08-28T04:15:27.030Z,19.80
2022-08-28T04:16:27.084Z,19.83
2022-08-28T04:17:27.003Z,19.83
2022-08-28T04:18:26.991Z,19.79
2022-08-28T04:19:26.973Z,19.80
2022-08-28T04:20:26.961Z,19.83
2022-08-28T04:21:26.953Z,19.80
2022-08-28T04:22:26.942Z,19.80
2022-08-28T04:23:26.919Z,19.80
2022-08-28T04:24:26.909Z,19.80
2022-08-28T04:25:26.895Z,19.80
2022-08-28T04:26:26.895Z,19.80
2022-08-28T04:27:26.878Z,19.79
2022-08-28T04:28:26.856Z,19.79
2022-08-28T04:29:26.838Z,19.79
2022-08-28T04:30:26.828Z,19.79
2022-08-28T04:31:31.923Z,19.80
2022-08-28T04:32:26.804Z,19.79
2022-08-28T04:33:26.786Z,19.80
2022-08-28T04:34:26.783Z,19.80
2022-08-28T04:35:26.867Z,19.79
2022-08-28T04:36:26.750Z,19.78
2022-08-28T04:37:27.946Z,19.79
2022-08-28T04:38:26.719Z,19.79
2022-08-28T04:39:26.712Z,19.80
2022-08-28T04:40:26.759Z,19.79
2022-08-28T04:41:26.689Z,19.79
2022-08-28T04:42:26.670Z,19.79
2022-08-28T04:43:26.655Z,19.79
2022-08-28T04:44:26.641Z,19.78
2022-08-28T04:45:26.699Z,19.80
2022-08-28T04:46:26.619Z,19.79
2022-08-28T04:47:26.606Z,19.79
2022-08-28T04:48:26.594Z,19.79
2022-08-28T04:49:26.596Z,19.79
2022-08-28T04:50:26.563Z,19.78
2022-08-28T04:51:26.561Z,19.78
2022-08-28T04:52:26.540Z,19.78
2022-08-28T04:53:26.531Z,19.79
2022-08-28T04:54:26.514Z,19.80
2022-08-28T04:55:32.433Z,19.80
2022-08-28T04:56:27.526Z,19.80
2022-08-28T04:57:26.476Z,19.79
2022-08-28T04:58:26.468Z,19.79
2022-08-28T04:59:26.457Z,19.80
2022-08-28T05:00:26.435Z,19.80
2022-08-28T05:01:26.484Z,19.80
2022-08-28T05:02:26.468Z,19.80
2022-08-28T05:03:26.410Z,19.80
2022-08-28T05:04:26.391Z,19.80
2022-08-28T05:05:26.532Z,19.83
2022-08-28T05:06:26.357Z,19.83
2022-08-28T05:07:26.350Z,19.84
2022-08-28T05:08:26.409Z,19.86
2022-08-28T05:09:26.322Z,19.86
2022-08-28T05:10:26.309Z,19.84
2022-08-28T05:11:33.762Z,19.86
2022-08-28T05:12:27.315Z,19.86
2022-08-28T05:13:26.273Z,19.87
2022-08-28T05:14:26.251Z,19.84
2022-08-28T05:15:26.243Z,19.86
2022-08-28T05:16:26.248Z,19.86
2022-08-28T05:17:26.230Z,19.87
2022-08-28T05:18:26.199Z,19.86
2022-08-28T05:19:26.186Z,19.86
2022-08-28T05:20:26.171Z,19.86
2022-08-28T05:21:26.163Z,19.86
2022-08-28T05:22:26.147Z,19.87
2022-08-28T05:23:26.135Z,19.87
2022-08-28T05:24:26.117Z,19.88
2022-08-28T05:25:26.114Z,19.88
2022-08-28T05:26:26.849Z,19.90
2022-08-28T05:27:26.079Z,19.90
2022-08-28T05:28:26.073Z,19.90
2022-08-28T05:29:26.051Z,19.90
2022-08-28T05:30:26.046Z,19.90
2022-08-28T05:31:26.080Z,19.91
2022-08-28T05:32:26.007Z,19.91
2022-08-28T05:33:26.001Z,19.93
2022-08-28T05:34:25.994Z,19.93
2022-08-28T05:35:25.974Z,19.94
2022-08-28T05:36:29.101Z,19.94
2022-08-28T05:37:26.993Z,19.93
2022-08-28T05:38:25.929Z,19.94
2022-08-28T05:39:25.926Z,19.94
2022-08-28T05:40:25.945Z,19.95
2022-08-28T05:41:25.890Z,19.97
2022-08-28T05:42:30.646Z,19.95
2022-08-28T05:43:25.863Z,19.97
2022-08-28T05:44:25.909Z,19.97
2022-08-28T05:45:25.836Z,19.97
2022-08-28T05:46:25.837Z,19.98
2022-08-28T05:47:25.819Z,19.98
2022-08-28T05:48:25.805Z,19.98
2022-08-28T05:49:25.788Z,19.98
2022-08-28T05:50:25.767Z,19.98
2022-08-28T05:51:25.765Z,19.98
2022-08-28T05:52:25.751Z,20.00
2022-08-28T05:53:25.733Z,19.98
2022-08-28T05:54:25.717Z,20.00
2022-08-28T05:55:25.702Z,19.98
2022-08-28T05:56:25.685Z,20.02
2022-08-28T05:57:25.679Z,20.00
2022-08-28T05:58:25.670Z,20.02
2022-08-28T06:00:00.609Z,20.02
2022-08-28T06:01:00.590Z,20.00
2022-08-28T06:02:35.526Z,20.02
2022-08-28T06:03:35.509Z,20.00
2022-08-28T06:04:35.549Z,20.00
2022-08-28T06:05:35.489Z,20.02
2022-08-28T06:06:35.467Z,19.98
2022-08-28T06:07:35.466Z,20.00
2022-08-28T06:08:35.443Z,20.02
2022-08-28T06:09:35.436Z,20.02
2022-08-28T06:10:35.411Z,20.00
2022-08-28T06:11:35.409Z,19.98
2022-08-28T06:12:35.389Z,19.98
2022-08-28T06:13:35.372Z,20.00
2022-08-28T06:14:35.360Z,19.97
2022-08-28T06:15:35.359Z,19.94
2022-08-28T06:16:35.368Z,19.94
2022-08-28T06:17:35.325Z,19.93
2022-08-28T06:18:35.308Z,19.94
2022-08-28T06:19:38.269Z,19.93
2022-08-28T06:20:35.289Z,19.93
2022-08-28T06:21:35.265Z,19.91
2022-08-28T06:22:35.256Z,19.90
2022-08-28T06:23:35.248Z,19.90
2022-08-28T06:24:35.236Z,19.90
2022-08-28T06:25:35.217Z,19.88
2022-08-28T06:26:35.196Z,19.88
2022-08-28T06:27:35.338Z,19.90
2022-08-28T06:28:35.184Z,19.90
2022-08-28T06:29:35.167Z,19.90
2022-08-28T06:30:35.155Z,19.90
2022-08-28T06:31:35.234Z,19.88
2022-08-28T06:32:35.131Z,19.90
2022-08-28T06:33:35.109Z,19.88
2022-08-28T06:34:35.093Z,19.88
2022-08-28T06:35:35.086Z,19.88
2022-08-28T06:36:35.063Z,19.90
2022-08-28T06:37:35.046Z,19.88
2022-08-28T06:38:35.034Z,19.90
2022-08-28T06:39:35.019Z,19.87
2022-08-28T06:40:35.081Z,19.90
2022-08-28T06:41:35.012Z,19.88
2022-08-28T06:42:34.981Z,19.88
2022-08-28T06:43:34.966Z,19.87
2022-08-28T06:44:34.958Z,19.88
2022-08-28T06:45:34.954Z,19.90
2022-08-28T06:46:34.936Z,19.88
2022-08-28T06:47:34.922Z,19.88
2022-08-28T06:48:34.903Z,19.88
2022-08-28T06:49:34.896Z,19.88
2022-08-28T06:50:34.880Z,19.87
2022-08-28T06:51:34.856Z,19.88
2022-08-28T06:52:34.843Z,19.88
2022-08-28T06:53:34.835Z,19.88
2022-08-28T06:54:34.816Z,19.90
2022-08-28T06:55:34.913Z,19.90
2022-08-28T06:56:34.799Z,19.87
2022-08-28T06:57:34.780Z,19.88
2022-08-28T06:58:34.763Z,19.88
2022-08-28T06:59:34.757Z,19.87
2022-08-28T07:00:34.743Z,19.87
2022-08-28T07:01:34.855Z,19.88
2022-08-28T07:02:34.754Z,19.90
2022-08-28T07:03:34.691Z,19.88
2022-08-28T07:04:34.680Z,19.88
2022-08-28T07:05:34.672Z,19.90
2022-08-28T07:06:34.665Z,19.88
2022-08-28T07:07:34.649Z,19.91
2022-08-28T07:08:34.625Z,19.90
2022-08-28T07:09:34.617Z,19.90
2022-08-28T07:10:34.607Z,19.91
2022-08-28T07:11:34.590Z,19.91
2022-08-28T07:12:34.721Z,19.93
2022-08-28T07:13:34.560Z,19.93
2022-08-28T07:14:34.551Z,19.93
2022-08-28T07:15:34.555Z,19.93
2022-08-28T07:16:34.522Z,19.91
2022-08-28T07:17:34.501Z,19.94
2022-08-28T07:18:34.495Z,19.94
2022-08-28T07:19:34.484Z,19.94
2022-08-28T07:20:34.462Z,19.95
2022-08-28T07:21:38.808Z,19.94
2022-08-28T07:22:34.444Z,19.94
2022-08-28T07:23:34.432Z,19.93
2022-08-28T07:24:34.415Z,19.94
2022-08-28T07:25:34.403Z,19.95
2022-08-28T07:26:35.643Z,19.97
2022-08-28T07:27:34.371Z,19.95
2022-08-28T07:28:34.352Z,19.95
2022-08-28T07:29:34.337Z,19.95
2022-08-28T07:30:34.331Z,19.95
2022-08-28T07:31:34.376Z,19.95
2022-08-28T07:32:34.305Z,19.98
2022-08-28T07:33:34.284Z,19.98
2022-08-28T07:34:34.278Z,19.97
2022-08-28T07:35:34.263Z,20.00
2022-08-28T07:36:34.249Z,20.00
2022-08-28T07:37:34.229Z,20.03
2022-08-28T07:38:34.220Z,20.02
2022-08-28T07:39:34.201Z,20.02
2022-08-28T07:40:34.256Z,20.03
2022-08-28T07:41:34.176Z,20.02
2022-08-28T07:42:35.739Z,20.02
2022-08-28T07:43:34.153Z,20.02
2022-08-28T07:44:34.147Z,20.00
2022-08-28T07:45:34.207Z,20.05
2022-08-28T07:46:34.107Z,20.03
2022-08-28T07:47:34.096Z,20.03
2022-08-28T07:48:34.085Z,20.03
2022-08-28T07:49:34.076Z,20.03
2022-08-28T07:50:34.057Z,20.02
2022-08-28T07:51:34.042Z,20.00
2022-08-28T07:52:34.034Z,20.03
2022-08-28T07:53:36.514Z,20.03
2022-08-28T07:54:34.003Z,20.03
2022-08-28T07:55:33.986Z,20.05
2022-08-28T07:56:33.972Z,20.06
2022-08-28T07:57:33.960Z,20.08
2022-08-28T07:58:33.947Z,20.06
2022-08-28T07:59:36.881Z,20.06
2022-08-28T08:00:33.917Z,20.05
2022-08-28T08:01:33.983Z,20.05
2022-08-28T08:02:33.895Z,20.03
2022-08-28T08:03:33.938Z,20.05
2022-08-28T08:04:33.868Z,20.03
2022-08-28T08:05:33.849Z,20.02
2022-08-28T08:06:34.259Z,20.02
2022-08-28T08:07:33.824Z,20.00
2022-08-28T08:08:33.807Z,19.98
2022-08-28T08:09:33.796Z,19.98
2022-08-28T08:10:34.180Z,20.00
2022-08-28T08:11:33.768Z,20.03
2022-08-28T08:12:33.752Z,20.05
2022-08-28T08:13:33.736Z,20.06
2022-08-28T08:14:33.727Z,20.06
2022-08-28T08:15:33.770Z,20.08
2022-08-28T08:16:33.697Z,20.09
2022-08-28T08:17:33.686Z,20.09
2022-08-28T08:18:33.671Z,20.09
2022-08-28T08:19:33.659Z,20.09
2022-08-28T08:20:33.644Z,20.09
2022-08-28T08:21:33.639Z,20.10
2022-08-28T08:22:33.624Z,20.10
2022-08-28T08:23:33.604Z,20.10
2022-08-28T08:24:33.593Z,20.10
2022-08-28T08:25:33.650Z,20.10
2022-08-28T08:26:33.566Z,20.10
2022-08-28T08:27:33.706Z,20.09
2022-08-28T08:28:33.537Z,20.08
2022-08-28T08:29:33.530Z,20.06
2022-08-28T08:30:33.509Z,20.02
2022-08-28T08:31:33.594Z,20.06
2022-08-28T08:32:33.489Z,20.06
2022-08-28T08:33:33.464Z,20.08
2022-08-28T08:34:33.455Z,20.08
2022-08-28T08:35:33.448Z,20.09
2022-08-28T08:36:33.485Z,20.09
2022-08-28T08:37:33.410Z,20.08
2022-08-28T08:38:33.406Z,20.09
2022-08-28T08:39:33.388Z,20.09
2022-08-28T08:40:33.441Z,20.12
2022-08-28T08:41:33.360Z,20.12
2022-08-28T08:42:33.351Z,20.12
2022-08-28T08:43:33.329Z,20.12
2022-08-28T08:44:34.204Z,20.12
2022-08-28T08:45:33.312Z,20.13
2022-08-28T08:46:33.400Z,20.13
2022-08-28T08:47:33.286Z,20.12
2022-08-28T08:48:33.262Z,20.13
2022-08-28T08:49:33.250Z,20.12
2022-08-28T08:50:33.241Z,20.13
2022-08-28T08:51:33.225Z,20.13
2022-08-28T08:52:33.211Z,20.15
2022-08-28T08:53:33.201Z,20.13
2022-08-28T08:54:33.180Z,20.12
2022-08-28T08:55:33.168Z,20.13
2022-08-28T08:56:34.505Z,20.12
2022-08-28T08:57:33.142Z,20.12
2022-08-28T08:58:33.128Z,20.12
2022-08-28T08:59:33.120Z,20.13
2022-08-28T09:00:33.103Z,20.13
2022-08-28T09:01:33.134Z,20.13
2022-08-28T09:02:33.077Z,20.13
2022-08-28T09:03:33.134Z,20.12
2022-08-28T09:04:33.042Z,20.13
2022-08-28T09:05:33.028Z,20.16
2022-08-28T09:06:33.020Z,20.13
2022-08-28T09:07:33.000Z,20.12
2022-08-28T09:08:32.988Z,20.09
2022-08-28T09:09:32.981Z,20.09
2022-08-28T09:10:32.966Z,20.09
2022-08-28T09:11:32.949Z,20.12
2022-08-28T09:12:32.935Z,20.12
2022-08-28T09:13:32.931Z,20.10
2022-08-28T09:14:32.910Z,20.12
2022-08-28T09:15:32.932Z,20.15
2022-08-28T09:16:32.882Z,20.13
2022-08-28T09:17:32.873Z,20.12
2022-08-28T09:18:32.860Z,20.12
2022-08-28T09:19:32.848Z,20.15
2022-08-28T09:20:33.570Z,20.15
2022-08-28T09:21:32.812Z,20.16
2022-08-28T09:22:32.804Z,20.16
2022-08-28T09:23:32.783Z,20.13
2022-08-28T09:24:32.775Z,20.15
2022-08-28T09:25:32.759Z,20.16
2022-08-28T09:26:32.744Z,20.16
2022-08-28T09:27:32.730Z,20.16
2022-08-28T09:28:32.722Z,20.16
2022-08-28T09:29:32.707Z,20.16
2022-08-28T09:30:32.688Z,20.16
2022-08-28T09:31:32.738Z,20.15
2022-08-28T09:32:32.662Z,20.18
2022-08-28T09:33:32.655Z,20.15
2022-08-28T09:34:38.161Z,20.18
2022-08-28T09:35:39.657Z,20.18
2022-08-28T09:36:32.614Z,20.16
2022-08-28T09:37:32.596Z,20.16
2022-08-28T09:38:32.585Z,20.16
2022-08-28T09:39:32.569Z,20.16
2022-08-28T09:40:32.591Z,20.18
2022-08-28T09:41:32.549Z,20.18
2022-08-28T09:42:32.525Z,20.16
2022-08-28T09:43:32.514Z,20.16
2022-08-28T09:44:32.505Z,20.15
2022-08-28T09:45:32.482Z,20.16
2022-08-28T09:46:32.618Z,20.16
2022-08-28T09:47:32.457Z,20.16
2022-08-28T09:48:32.448Z,20.18
2022-08-28T09:49:32.430Z,20.18
2022-08-28T09:50:32.421Z,20.20
2022-08-28T09:51:32.407Z,20.18
2022-08-28T09:52:32.395Z,20.20
2022-08-28T09:53:32.377Z,20.21
2022-08-28T09:54:32.367Z,20.21
2022-08-28T09:55:32.356Z,20.21
2022-08-28T09:56:32.333Z,20.20
2022-08-28T09:57:32.318Z,20.20
2022-08-28T09:58:32.311Z,20.21
2022-08-28T09:59:32.304Z,20.20
2022-08-28T10:00:32.280Z,20.18
2022-08-28T10:01:32.342Z,20.21
2022-08-28T10:02:32.260Z,20.20
2022-08-28T10:03:32.251Z,20.21
2022-08-28T10:04:32.387Z,20.20
2022-08-28T10:05:32.209Z,20.20
2022-08-28T10:06:32.208Z,20.20
2022-08-28T10:07:32.182Z,20.20
2022-08-28T10:08:32.180Z,20.21
2022-08-28T10:09:32.162Z,20.20
2022-08-28T10:10:32.151Z,20.23
2022-08-28T10:11:32.142Z,20.21
2022-08-28T10:12:32.129Z,20.20
2022-08-28T10:13:32.114Z,20.20
2022-08-28T10:14:32.089Z,20.20
2022-08-28T10:15:32.099Z,20.18
2022-08-28T10:16:32.067Z,20.21
2022-08-28T10:17:32.046Z,20.20
2022-08-28T10:18:32.039Z,20.20
2022-08-28T10:19:32.019Z,20.20
2022-08-28T10:20:32.014Z,20.18
2022-08-28T10:21:32.004Z,20.20
2022-08-28T10:22:31.979Z,20.16
2022-08-28T10:23:31.971Z,20.16
2022-08-28T10:24:31.960Z,20.18
2022-08-28T10:25:31.942Z,20.20
2022-08-28T10:26:31.931Z,20.21
2022-08-28T10:27:31.918Z,20.20
2022-08-28T10:28:31.904Z,20.18
2022-08-28T10:29:31.887Z,20.21
2022-08-28T10:30:31.878Z,20.20
2022-08-28T10:31:31.913Z,20.21
2022-08-28T10:32:31.844Z,20.20
2022-08-28T10:33:31.979Z,20.18
2022-08-28T10:34:37.827Z,20.20
2022-08-28T10:35:31.809Z,20.20
2022-08-28T10:36:34.426Z,20.20
2022-08-28T10:37:31.783Z,20.20
2022-08-28T10:38:31.767Z,20.20
2022-08-28T10:39:31.756Z,20.21
2022-08-28T10:40:31.790Z,20.21
2022-08-28T10:41:31.728Z,20.20
2022-08-28T10:42:35.967Z,20.20
2022-08-28T10:43:31.709Z,20.20
2022-08-28T10:44:31.688Z,20.21
2022-08-28T10:45:31.665Z,20.21
2022-08-28T10:46:31.701Z,20.23
2022-08-28T10:47:31.648Z,20.24
2022-08-28T10:48:31.634Z,20.24
2022-08-28T10:49:31.613Z,20.21
2022-08-28T10:50:31.602Z,20.21
2022-08-28T10:51:35.433Z,20.23
2022-08-28T10:52:31.582Z,20.21
2022-08-28T10:53:31.567Z,20.21
2022-08-28T10:54:31.546Z,20.23
2022-08-28T10:55:31.531Z,20.21
2022-08-28T10:56:31.527Z,20.23
2022-08-28T10:57:34.020Z,20.24
2022-08-28T10:58:31.489Z,20.24
2022-08-28T10:59:31.480Z,20.24
2022-08-28T11:00:31.467Z,20.23
2022-08-28T11:01:31.516Z,20.23
2022-08-28T11:02:31.495Z,20.25
2022-08-28T11:03:35.420Z,20.24
2022-08-28T11:04:37.413Z,20.24
2022-08-28T11:05:31.398Z,20.23
2022-08-28T11:06:31.377Z,20.24
2022-08-28T11:07:31.366Z,20.25
2022-08-28T11:08:31.366Z,20.24
2022-08-28T11:09:31.343Z,20.24
2022-08-28T11:10:31.329Z,20.25
2022-08-28T11:11:31.309Z,20.25
2022-08-28T11:12:31.294Z,20.25
2022-08-28T11:13:31.289Z,20.27
2022-08-28T11:14:31.275Z,20.25
2022-08-28T11:15:36.820Z,20.25
2022-08-28T11:16:32.307Z,20.27
2022-08-28T11:17:31.230Z,20.27
2022-08-28T11:18:31.222Z,20.28
2022-08-28T11:19:31.203Z,20.28
2022-08-28T11:20:31.183Z,20.27
2022-08-28T11:21:31.173Z,20.27
2022-08-28T11:22:31.164Z,20.27
2022-08-28T11:23:31.146Z,20.28
2022-08-28T11:24:37.137Z,20.28
2022-08-28T11:25:32.635Z,20.27
2022-08-28T11:26:31.102Z,20.28
2022-08-28T11:27:31.090Z,20.27
2022-08-28T11:28:31.079Z,20.27
2022-08-28T11:29:31.063Z,20.27
2022-08-28T11:30:31.120Z,20.25
2022-08-28T11:31:31.125Z,20.27
2022-08-28T11:32:31.030Z,20.27
2022-08-28T11:33:31.007Z,20.27
2022-08-28T11:34:30.994Z,20.28
2022-08-28T11:35:30.979Z,20.27
2022-08-28T11:36:30.967Z,20.27
2022-08-28T11:37:30.952Z,20.25
2022-08-28T11:38:30.937Z,20.28
2022-08-28T11:39:30.924Z,20.25
2022-08-28T11:40:30.988Z,20.27
2022-08-28T11:41:30.901Z,20.25
2022-08-28T11:42:30.902Z,20.25
2022-08-28T11:43:30.869Z,20.27
2022-08-28T11:44:30.968Z,20.27
2022-08-28T11:45:30.843Z,20.27
2022-08-28T11:46:30.877Z,20.28
2022-08-28T11:47:30.825Z,20.27
2022-08-28T11:48:30.799Z,20.28
2022-08-28T11:49:30.787Z,20.27
2022-08-28T11:50:30.771Z,20.28
2022-08-28T11:51:30.772Z,20.28
2022-08-28T11:52:30.844Z,20.30
2022-08-28T11:53:30.732Z,20.31
2022-08-28T11:54:30.732Z,20.30
2022-08-28T11:55:30.715Z,20.30
2022-08-28T11:56:31.949Z,20.28
2022-08-28T11:57:30.684Z,20.28
2022-08-28T11:58:30.671Z,20.31
2022-08-28T11:59:34.947Z,20.28
2022-08-28T12:00:30.648Z,20.30
2022-08-28T12:01:30.633Z,20.30
2022-08-28T12:02:30.688Z,20.30
2022-08-28T12:03:30.600Z,20.31
2022-08-28T12:04:30.622Z,20.30
2022-08-28T12:05:30.576Z,20.30
2022-08-28T12:06:30.565Z,20.30
2022-08-28T12:07:30.550Z,20.30
2022-08-28T12:08:30.538Z,20.28
2022-08-28T12:09:30.517Z,20.30
2022-08-28T12:10:30.511Z,20.30
2022-08-28T12:11:30.487Z,20.28
2022-08-28T12:12:30.470Z,20.31
2022-08-28T12:13:30.464Z,20.31
2022-08-28T12:14:30.458Z,20.31
2022-08-28T12:15:30.440Z,20.31
2022-08-28T12:16:30.491Z,20.30
2022-08-28T12:17:31.472Z,20.28
2022-08-28T12:18:30.404Z,20.30
2022-08-28T12:19:30.377Z,20.30
2022-08-28T12:20:30.365Z,20.31
2022-08-28T12:21:30.351Z,20.31
2022-08-28T12:22:30.342Z,20.31
2022-08-28T12:23:30.324Z,20.31
2022-08-28T12:24:30.322Z,20.30
2022-08-28T12:25:30.297Z,20.31
2022-08-28T12:26:30.296Z,20.31
2022-08-28T12:27:30.280Z,20.31
2022-08-28T12:28:30.267Z,20.33
2022-08-28T12:29:30.250Z,20.33
2022-08-28T12:30:30.263Z,20.31
2022-08-28T12:31:30.228Z,20.31
2022-08-28T12:32:30.208Z,20.33
2022-08-28T12:33:30.189Z,20.31
2022-08-28T12:34:30.180Z,20.33
2022-08-28T12:35:30.269Z,20.33
2022-08-28T12:36:30.158Z,20.33
2022-08-28T12:37:30.137Z,20.33
2022-08-28T12:38:30.119Z,20.33
2022-08-28T12:39:30.115Z,20.33
2022-08-28T12:40:30.149Z,20.33
2022-08-28T12:41:30.084Z,20.33
2022-08-28T12:42:30.065Z,20.33
2022-08-28T12:43:30.065Z,20.34
2022-08-28T12:44:30.045Z,20.35
2022-08-28T12:45:30.034Z,20.33
2022-08-28T12:46:30.101Z,20.33
2022-08-28T12:47:30.002Z,20.33
2022-08-28T12:48:30.000Z,20.34
2022-08-28T12:49:29.975Z,20.34
2022-08-28T12:50:29.973Z,20.34
2022-08-28T12:51:29.955Z,20.35
2022-08-28T12:52:29.931Z,20.35
2022-08-28T12:53:29.926Z,20.34